sensor_id;sensor_type;location;lat;lon;timestamp;P1;durP1;ratioP1;P2;durP2;ratioP2
2320;SDS011;15376;48.540;9.268;2022-09-30T00:01:14;5.50;;;5.00;;
2320;SDS011;15376;48.540;9.268;2022-09-30T00:03:40;6.30;;;5.60;;
2320;SDS011;15376;48.540;9.268;2022-09-30T00:06:06;8.20;;;6.40;;
2320;SDS011;15376;48.540;9.268;2022-09-30T00:08:31;7.63;;;6.73;;
2320;SDS011;15376;48.540;9.268;2022-09-30T00:11:01;8.80;;;8.00;;
2320;SDS011;15376;48.540;9.268;2022-09-30T00:13:32;8.00;;;6.43;;
2320;SDS011;15376;48.540;9.268;2022-09-30T00:16:01;8.10;;;6.47;;
2320;SDS011;15376;48.540;9.268;2022-09-30T00:18:26;7.33;;;6.63;;
2320;SDS011;15376;48.540;9.268;2022-09-30T00:20:52;6.20;;;5.63;;
2320;SDS011;15376;48.540;9.268;2022-09-30T00:23:18;9.40;;;5.87;;
2320;SDS011;15376;48.540;9.268;2022-09-30T00:25:44;8.57;;;6.87;;
2320;SDS011;15376;48.540;9.268;2022-09-30T00:28:09;7.03;;;6.43;;
2320;SDS011;15376;48.540;9.268;2022-09-30T00:30:35;7.63;;;5.93;;
2320;SDS011;15376;48.540;9.268;2022-09-30T00:33:00;7.27;;;6.57;;
2320;SDS011;15376;48.540;9.268;2022-09-30T00:35:26;6.17;;;5.57;;
2320;SDS011;15376;48.540;9.268;2022-09-30T00:37:51;7.97;;;5.90;;
2320;SDS011;15376;48.540;9.268;2022-09-30T00:40:18;5.40;;;4.90;;
2320;SDS011;15376;48.540;9.268;2022-09-30T00:42:43;6.60;;;5.67;;
2320;SDS011;15376;48.540;9.268;2022-09-30T00:45:10;5.20;;;4.80;;
2320;SDS011;15376;48.540;9.268;2022-09-30T00:50:24;9.00;;;5.67;;
2320;SDS011;15376;48.540;9.268;2022-09-30T00:52:51;5.97;;;5.47;;
2320;SDS011;15376;48.540;9.268;2022-09-30T00:57:54;6.30;;;5.70;;
2320;SDS011;15376;48.540;9.268;2022-09-30T01:00:20;6.73;;;6.03;;
2320;SDS011;15376;48.540;9.268;2022-09-30T01:02:46;6.57;;;5.97;;
2320;SDS011;15376;48.540;9.268;2022-09-30T01:05:12;7.70;;;6.90;;
2320;SDS011;15376;48.540;9.268;2022-09-30T01:07:38;14.27;;;6.80;;
2320;SDS011;15376;48.540;9.268;2022-09-30T01:10:03;6.50;;;5.90;;
2320;SDS011;15376;48.540;9.268;2022-09-30T01:12:29;13.43;;;5.50;;
2320;SDS011;15376;48.540;9.268;2022-09-30T01:14:55;7.37;;;6.67;;
2320;SDS011;15376;48.540;9.268;2022-09-30T01:17:26;6.13;;;5.53;;
2320;SDS011;15376;48.540;9.268;2022-09-30T01:26:02;7.17;;;6.47;;
2320;SDS011;15376;48.540;9.268;2022-09-30T01:44:48;6.07;;;5.57;;
2320;SDS011;15376;48.540;9.268;2022-09-30T01:47:28;7.37;;;6.20;;
2320;SDS011;15376;48.540;9.268;2022-09-30T01:50:20;6.37;;;5.77;;
2320;SDS011;15376;48.540;9.268;2022-09-30T01:53:06;7.10;;;6.40;;
2320;SDS011;15376;48.540;9.268;2022-09-30T01:55:57;6.47;;;5.87;;
2320;SDS011;15376;48.540;9.268;2022-09-30T02:01:20;6.87;;;6.27;;
2320;SDS011;15376;48.540;9.268;2022-09-30T02:03:52;6.33;;;5.73;;
2320;SDS011;15376;48.540;9.268;2022-09-30T02:06:22;6.03;;;5.53;;
2320;SDS011;15376;48.540;9.268;2022-09-30T02:08:57;9.67;;;7.33;;
2320;SDS011;15376;48.540;9.268;2022-09-30T02:11:36;6.60;;;6.00;;
2320;SDS011;15376;48.540;9.268;2022-09-30T02:22:15;6.83;;;6.07;;
2320;SDS011;15376;48.540;9.268;2022-09-30T02:24:44;9.80;;;5.90;;
2320;SDS011;15376;48.540;9.268;2022-09-30T02:27:15;6.10;;;5.13;;
2320;SDS011;15376;48.540;9.268;2022-09-30T02:29:50;6.30;;;5.80;;
2320;SDS011;15376;48.540;9.268;2022-09-30T02:32:29;6.13;;;5.57;;
2320;SDS011;15376;48.540;9.268;2022-09-30T02:35:00;6.73;;;5.70;;
2320;SDS011;15376;48.540;9.268;2022-09-30T02:37:36;6.40;;;5.77;;
2320;SDS011;15376;48.540;9.268;2022-09-30T02:40:06;6.50;;;5.97;;
2320;SDS011;15376;48.540;9.268;2022-09-30T02:42:42;6.30;;;5.80;;
2320;SDS011;15376;48.540;9.268;2022-09-30T02:45:11;7.27;;;6.13;;
2320;SDS011;15376;48.540;9.268;2022-09-30T02:51:03;6.33;;;5.80;;
2320;SDS011;15376;48.540;9.268;2022-09-30T02:53:34;8.47;;;6.50;;
2320;SDS011;15376;48.540;9.268;2022-09-30T02:58:37;6.57;;;5.77;;
2320;SDS011;15376;48.540;9.268;2022-09-30T03:01:11;6.47;;;5.87;;
2320;SDS011;15376;48.540;9.268;2022-09-30T03:03:52;7.30;;;6.60;;
2320;SDS011;15376;48.540;9.268;2022-09-30T03:06:18;6.47;;;5.87;;
2320;SDS011;15376;48.540;9.268;2022-09-30T03:08:44;8.37;;;6.03;;
2320;SDS011;15376;48.540;9.268;2022-09-30T03:11:11;8.20;;;6.83;;
2320;SDS011;15376;48.540;9.268;2022-09-30T03:16:39;7.73;;;6.97;;
2320;SDS011;15376;48.540;9.268;2022-09-30T03:27:32;6.93;;;6.20;;
2320;SDS011;15376;48.540;9.268;2022-09-30T03:30:13;8.03;;;6.63;;
2320;SDS011;15376;48.540;9.268;2022-09-30T03:32:51;6.83;;;6.23;;
2320;SDS011;15376;48.540;9.268;2022-09-30T03:38:33;6.97;;;6.37;;
2320;SDS011;15376;48.540;9.268;2022-09-30T03:41:15;7.37;;;6.67;;
2320;SDS011;15376;48.540;9.268;2022-09-30T03:43:53;6.73;;;6.13;;
2320;SDS011;15376;48.540;9.268;2022-09-30T03:46:40;6.97;;;6.27;;
2320;SDS011;15376;48.540;9.268;2022-09-30T03:49:22;7.03;;;6.33;;
2320;SDS011;15376;48.540;9.268;2022-09-30T03:51:50;6.80;;;6.20;;
2320;SDS011;15376;48.540;9.268;2022-09-30T03:54:17;7.47;;;6.67;;
2320;SDS011;15376;48.540;9.268;2022-09-30T03:56:42;7.17;;;6.47;;
2320;SDS011;15376;48.540;9.268;2022-09-30T03:59:09;7.13;;;6.43;;
2320;SDS011;15376;48.540;9.268;2022-09-30T04:01:36;7.23;;;6.53;;
2320;SDS011;15376;48.540;9.268;2022-09-30T04:04:03;6.67;;;5.97;;
2320;SDS011;15376;48.540;9.268;2022-09-30T04:06:28;6.50;;;6.00;;
2320;SDS011;15376;48.540;9.268;2022-09-30T04:08:54;7.33;;;6.07;;
2320;SDS011;15376;48.540;9.268;2022-09-30T04:11:19;7.70;;;7.00;;
2320;SDS011;15376;48.540;9.268;2022-09-30T04:13:45;6.93;;;6.33;;
2320;SDS011;15376;48.540;9.268;2022-09-30T04:16:10;7.27;;;6.20;;
2320;SDS011;15376;48.540;9.268;2022-09-30T04:18:36;8.17;;;6.57;;
2320;SDS011;15376;48.540;9.268;2022-09-30T04:21:08;6.73;;;6.03;;
2320;SDS011;15376;48.540;9.268;2022-09-30T04:23:38;6.90;;;6.20;;
2320;SDS011;15376;48.540;9.268;2022-09-30T04:26:05;5.70;;;5.20;;
2320;SDS011;15376;48.540;9.268;2022-09-30T04:28:32;6.67;;;5.50;;
2320;SDS011;15376;48.540;9.268;2022-09-30T04:30:59;7.63;;;5.97;;
2320;SDS011;15376;48.540;9.268;2022-09-30T04:33:25;8.47;;;6.50;;
2320;SDS011;15376;48.540;9.268;2022-09-30T04:35:54;6.30;;;5.77;;
2320;SDS011;15376;48.540;9.268;2022-09-30T04:38:21;6.20;;;5.67;;
2320;SDS011;15376;48.540;9.268;2022-09-30T04:40:48;6.73;;;6.10;;
2320;SDS011;15376;48.540;9.268;2022-09-30T04:43:15;9.30;;;6.53;;
2320;SDS011;15376;48.540;9.268;2022-09-30T04:45:43;6.57;;;6.00;;
2320;SDS011;15376;48.540;9.268;2022-09-30T04:48:09;7.10;;;6.00;;
2320;SDS011;15376;48.540;9.268;2022-09-30T04:50:34;7.30;;;6.60;;
2320;SDS011;15376;48.540;9.268;2022-09-30T04:52:59;8.80;;;6.73;;
2320;SDS011;15376;48.540;9.268;2022-09-30T04:55:25;17.63;;;6.73;;
2320;SDS011;15376;48.540;9.268;2022-09-30T04:57:51;7.73;;;6.40;;
2320;SDS011;15376;48.540;9.268;2022-09-30T05:00:16;9.40;;;8.00;;
2320;SDS011;15376;48.540;9.268;2022-09-30T05:02:42;8.77;;;6.57;;
2320;SDS011;15376;48.540;9.268;2022-09-30T05:05:08;7.33;;;6.47;;
2320;SDS011;15376;48.540;9.268;2022-09-30T05:07:34;7.23;;;6.13;;
2320;SDS011;15376;48.540;9.268;2022-09-30T05:09:59;10.13;;;7.17;;
2320;SDS011;15376;48.540;9.268;2022-09-30T05:12:25;8.37;;;7.20;;
2320;SDS011;15376;48.540;9.268;2022-09-30T05:14:50;12.03;;;7.30;;
2320;SDS011;15376;48.540;9.268;2022-09-30T05:17:16;7.87;;;7.10;;
2320;SDS011;15376;48.540;9.268;2022-09-30T05:19:41;7.83;;;7.07;;
2320;SDS011;15376;48.540;9.268;2022-09-30T05:22:06;8.47;;;7.07;;
2320;SDS011;15376;48.540;9.268;2022-09-30T05:24:32;11.20;;;6.67;;
2320;SDS011;15376;48.540;9.268;2022-09-30T05:26:57;8.87;;;7.00;;
2320;SDS011;15376;48.540;9.268;2022-09-30T05:29:22;10.57;;;8.27;;
2320;SDS011;15376;48.540;9.268;2022-09-30T05:31:48;8.37;;;7.67;;
2320;SDS011;15376;48.540;9.268;2022-09-30T05:34:13;9.10;;;7.40;;
2320;SDS011;15376;48.540;9.268;2022-09-30T05:36:41;8.60;;;6.93;;
2320;SDS011;15376;48.540;9.268;2022-09-30T05:39:08;9.03;;;7.40;;
2320;SDS011;15376;48.540;9.268;2022-09-30T05:41:34;7.47;;;6.77;;
2320;SDS011;15376;48.540;9.268;2022-09-30T05:43:59;7.20;;;6.13;;
2320;SDS011;15376;48.540;9.268;2022-09-30T05:46:25;9.93;;;6.80;;
2320;SDS011;15376;48.540;9.268;2022-09-30T05:48:51;8.20;;;7.37;;
2320;SDS011;15376;48.540;9.268;2022-09-30T05:51:18;8.70;;;6.57;;
2320;SDS011;15376;48.540;9.268;2022-09-30T05:53:44;9.60;;;6.30;;
2320;SDS011;15376;48.540;9.268;2022-09-30T05:56:09;29.80;;;21.53;;
2320;SDS011;15376;48.540;9.268;2022-09-30T05:58:35;13.30;;;10.63;;
2320;SDS011;15376;48.540;9.268;2022-09-30T06:01:05;9.43;;;7.47;;
2320;SDS011;15376;48.540;9.268;2022-09-30T06:03:32;10.67;;;8.50;;
2320;SDS011;15376;48.540;9.268;2022-09-30T06:05:58;13.57;;;8.70;;
2320;SDS011;15376;48.540;9.268;2022-09-30T06:08:24;15.67;;;9.57;;
2320;SDS011;15376;48.540;9.268;2022-09-30T06:10:49;14.60;;;9.10;;
2320;SDS011;15376;48.540;9.268;2022-09-30T06:13:15;10.30;;;9.20;;
2320;SDS011;15376;48.540;9.268;2022-09-30T06:15:53;10.07;;;9.07;;
2320;SDS011;15376;48.540;9.268;2022-09-30T06:18:22;11.47;;;9.37;;
2320;SDS011;15376;48.540;9.268;2022-09-30T06:20:47;11.93;;;9.80;;
2320;SDS011;15376;48.540;9.268;2022-09-30T06:23:13;12.63;;;10.53;;
2320;SDS011;15376;48.540;9.268;2022-09-30T06:25:38;15.27;;;10.70;;
2320;SDS011;15376;48.540;9.268;2022-09-30T06:28:03;10.70;;;9.57;;
2320;SDS011;15376;48.540;9.268;2022-09-30T06:30:29;15.43;;;11.67;;
2320;SDS011;15376;48.540;9.268;2022-09-30T06:32:57;18.40;;;10.90;;
2320;SDS011;15376;48.540;9.268;2022-09-30T06:35:22;21.93;;;12.67;;
2320;SDS011;15376;48.540;9.268;2022-09-30T06:37:50;24.27;;;12.60;;
2320;SDS011;15376;48.540;9.268;2022-09-30T06:40:16;28.47;;;13.67;;
2320;SDS011;15376;48.540;9.268;2022-09-30T06:42:41;23.83;;;12.70;;
2320;SDS011;15376;48.540;9.268;2022-09-30T06:45:07;24.10;;;12.10;;
2320;SDS011;15376;48.540;9.268;2022-09-30T06:47:34;25.23;;;12.20;;
2320;SDS011;15376;48.540;9.268;2022-09-30T06:49:59;24.63;;;13.63;;
2320;SDS011;15376;48.540;9.268;2022-09-30T06:52:25;16.33;;;9.93;;
2320;SDS011;15376;48.540;9.268;2022-09-30T06:54:50;19.43;;;10.93;;
2320;SDS011;15376;48.540;9.268;2022-09-30T06:57:16;21.70;;;11.87;;
2320;SDS011;15376;48.540;9.268;2022-09-30T06:59:46;16.00;;;10.40;;
2320;SDS011;15376;48.540;9.268;2022-09-30T07:02:11;12.37;;;10.10;;
2320;SDS011;15376;48.540;9.268;2022-09-30T07:04:37;13.90;;;9.37;;
2320;SDS011;15376;48.540;9.268;2022-09-30T07:07:02;10.20;;;8.17;;
2320;SDS011;15376;48.540;9.268;2022-09-30T07:09:27;11.93;;;8.57;;
2320;SDS011;15376;48.540;9.268;2022-09-30T07:11:53;11.53;;;8.03;;
2320;SDS011;15376;48.540;9.268;2022-09-30T07:14:18;12.90;;;7.90;;
2320;SDS011;15376;48.540;9.268;2022-09-30T07:16:48;10.70;;;8.57;;
2320;SDS011;15376;48.540;9.268;2022-09-30T07:19:16;11.67;;;9.40;;
2320;SDS011;15376;48.540;9.268;2022-09-30T07:21:44;11.23;;;9.53;;
2320;SDS011;15376;48.540;9.268;2022-09-30T07:24:09;9.23;;;7.90;;
2320;SDS011;15376;48.540;9.268;2022-09-30T07:26:35;15.57;;;10.03;;
2320;SDS011;15376;48.540;9.268;2022-09-30T07:29:00;15.13;;;9.73;;
2320;SDS011;15376;48.540;9.268;2022-09-30T07:31:26;17.30;;;11.70;;
2320;SDS011;15376;48.540;9.268;2022-09-30T07:33:52;17.13;;;11.80;;
2320;SDS011;15376;48.540;9.268;2022-09-30T07:36:20;13.00;;;11.40;;
2320;SDS011;15376;48.540;9.268;2022-09-30T07:38:51;15.20;;;10.40;;
2320;SDS011;15376;48.540;9.268;2022-09-30T07:41:19;14.63;;;11.73;;
2320;SDS011;15376;48.540;9.268;2022-09-30T07:43:49;13.17;;;11.70;;
2320;SDS011;15376;48.540;9.268;2022-09-30T07:46:19;14.10;;;11.43;;
2320;SDS011;15376;48.540;9.268;2022-09-30T07:48:51;16.60;;;11.80;;
2320;SDS011;15376;48.540;9.268;2022-09-30T07:51:29;13.03;;;10.70;;
2320;SDS011;15376;48.540;9.268;2022-09-30T07:54:00;17.27;;;9.10;;
2320;SDS011;15376;48.540;9.268;2022-09-30T07:56:28;11.73;;;9.50;;
2320;SDS011;15376;48.540;9.268;2022-09-30T07:58:54;10.60;;;8.73;;
2320;SDS011;15376;48.540;9.268;2022-09-30T08:01:21;11.40;;;8.60;;
2320;SDS011;15376;48.540;9.268;2022-09-30T08:03:51;9.70;;;8.53;;
2320;SDS011;15376;48.540;9.268;2022-09-30T08:06:18;9.57;;;8.53;;
2320;SDS011;15376;48.540;9.268;2022-09-30T08:08:44;8.80;;;8.00;;
2320;SDS011;15376;48.540;9.268;2022-09-30T08:11:11;8.60;;;7.73;;
2320;SDS011;15376;48.540;9.268;2022-09-30T08:13:38;8.90;;;8.00;;
2320;SDS011;15376;48.540;9.268;2022-09-30T08:16:03;7.80;;;7.10;;
2320;SDS011;15376;48.540;9.268;2022-09-30T08:18:29;9.03;;;8.10;;
2320;SDS011;15376;48.540;9.268;2022-09-30T08:20:55;9.77;;;7.20;;
2320;SDS011;15376;48.540;9.268;2022-09-30T08:23:20;11.63;;;8.03;;
2320;SDS011;15376;48.540;9.268;2022-09-30T08:25:46;8.87;;;7.87;;
2320;SDS011;15376;48.540;9.268;2022-09-30T08:28:12;9.47;;;8.27;;
2320;SDS011;15376;48.540;9.268;2022-09-30T08:30:38;8.00;;;7.30;;
2320;SDS011;15376;48.540;9.268;2022-09-30T08:33:04;9.20;;;7.90;;
2320;SDS011;15376;48.540;9.268;2022-09-30T08:35:30;9.63;;;8.73;;
2320;SDS011;15376;48.540;9.268;2022-09-30T08:37:55;11.67;;;9.00;;
2320;SDS011;15376;48.540;9.268;2022-09-30T08:40:25;12.63;;;9.83;;
2320;SDS011;15376;48.540;9.268;2022-09-30T08:43:00;12.40;;;9.70;;
2320;SDS011;15376;48.540;9.268;2022-09-30T08:45:37;9.40;;;8.50;;
2320;SDS011;15376;48.540;9.268;2022-09-30T08:48:20;10.13;;;9.13;;
2320;SDS011;15376;48.540;9.268;2022-09-30T08:53:41;13.90;;;10.63;;
2320;SDS011;15376;48.540;9.268;2022-09-30T08:56:21;11.33;;;10.13;;
2320;SDS011;15376;48.540;9.268;2022-09-30T08:58:49;10.43;;;9.40;;
2320;SDS011;15376;48.540;9.268;2022-09-30T09:03:55;11.80;;;10.17;;
2320;SDS011;15376;48.540;9.268;2022-09-30T09:06:26;13.30;;;9.60;;
2320;SDS011;15376;48.540;9.268;2022-09-30T09:11:42;10.20;;;9.20;;
2320;SDS011;15376;48.540;9.268;2022-09-30T09:16:47;9.43;;;8.53;;
2320;SDS011;15376;48.540;9.268;2022-09-30T09:19:36;7.97;;;7.17;;
2320;SDS011;15376;48.540;9.268;2022-09-30T09:22:06;8.93;;;7.90;;
2320;SDS011;15376;48.540;9.268;2022-09-30T09:24:36;8.13;;;7.33;;
2320;SDS011;15376;48.540;9.268;2022-09-30T09:27:22;6.87;;;6.27;;
2320;SDS011;15376;48.540;9.268;2022-09-30T09:32:25;7.17;;;6.57;;
2320;SDS011;15376;48.540;9.268;2022-09-30T09:34:54;6.47;;;5.90;;
2320;SDS011;15376;48.540;9.268;2022-09-30T09:37:33;7.10;;;6.50;;
2320;SDS011;15376;48.540;9.268;2022-09-30T09:40:37;6.97;;;6.47;;
2320;SDS011;15376;48.540;9.268;2022-09-30T09:46:02;6.60;;;6.00;;
2320;SDS011;15376;48.540;9.268;2022-09-30T09:48:37;6.03;;;5.53;;
2320;SDS011;15376;48.540;9.268;2022-09-30T09:51:05;5.87;;;5.37;;
2320;SDS011;15376;48.540;9.268;2022-09-30T09:56:16;5.40;;;5.00;;
2320;SDS011;15376;48.540;9.268;2022-09-30T10:01:30;7.13;;;6.53;;
2320;SDS011;15376;48.540;9.268;2022-09-30T10:04:13;6.03;;;5.40;;
2320;SDS011;15376;48.540;9.268;2022-09-30T10:09:27;6.03;;;5.50;;
2320;SDS011;15376;48.540;9.268;2022-09-30T10:14:32;5.80;;;5.30;;
2320;SDS011;15376;48.540;9.268;2022-09-30T10:16:59;5.93;;;5.53;;
2320;SDS011;15376;48.540;9.268;2022-09-30T10:19:27;5.50;;;5.00;;
2320;SDS011;15376;48.540;9.268;2022-09-30T10:24:32;5.47;;;5.07;;
2320;SDS011;15376;48.540;9.268;2022-09-30T10:26:59;6.20;;;5.03;;
2320;SDS011;15376;48.540;9.268;2022-09-30T10:29:25;5.70;;;5.27;;
2320;SDS011;15376;48.540;9.268;2022-09-30T10:31:55;4.80;;;4.40;;
2320;SDS011;15376;48.540;9.268;2022-09-30T10:34:40;4.27;;;3.97;;
2320;SDS011;15376;48.540;9.268;2022-09-30T10:37:10;5.37;;;4.90;;
2320;SDS011;15376;48.540;9.268;2022-09-30T10:39:41;5.50;;;5.00;;
2320;SDS011;15376;48.540;9.268;2022-09-30T10:44:52;5.33;;;4.90;;
2320;SDS011;15376;48.540;9.268;2022-09-30T10:47:21;5.53;;;5.03;;
2320;SDS011;15376;48.540;9.268;2022-09-30T10:49:51;5.63;;;5.13;;
2320;SDS011;15376;48.540;9.268;2022-09-30T10:52:23;7.30;;;4.90;;
2320;SDS011;15376;48.540;9.268;2022-09-30T10:54:53;6.40;;;5.80;;
2320;SDS011;15376;48.540;9.268;2022-09-30T11:00:00;5.57;;;5.07;;
2320;SDS011;15376;48.540;9.268;2022-09-30T11:02:49;8.17;;;5.40;;
2320;SDS011;15376;48.540;9.268;2022-09-30T11:05:22;5.53;;;4.97;;
2320;SDS011;15376;48.540;9.268;2022-09-30T11:43:07;4.47;;;4.10;;
2320;SDS011;15376;48.540;9.268;2022-09-30T11:49:16;5.03;;;4.53;;
2320;SDS011;15376;48.540;9.268;2022-09-30T11:55:10;4.27;;;3.83;;
2320;SDS011;15376;48.540;9.268;2022-09-30T12:00:16;4.07;;;3.77;;
2320;SDS011;15376;48.540;9.268;2022-09-30T12:02:45;4.40;;;3.57;;
2320;SDS011;15376;48.540;9.268;2022-09-30T12:07:49;3.30;;;3.10;;
2320;SDS011;15376;48.540;9.268;2022-09-30T12:10:22;3.20;;;2.97;;
2320;SDS011;15376;48.540;9.268;2022-09-30T12:12:55;3.77;;;3.47;;
2320;SDS011;15376;48.540;9.268;2022-09-30T12:15:25;3.80;;;3.50;;
2320;SDS011;15376;48.540;9.268;2022-09-30T12:17:54;4.37;;;2.97;;
2320;SDS011;15376;48.540;9.268;2022-09-30T12:20:36;3.80;;;3.47;;
2320;SDS011;15376;48.540;9.268;2022-09-30T12:23:16;3.43;;;3.13;;
2320;SDS011;15376;48.540;9.268;2022-09-30T12:25:53;3.63;;;3.33;;
2320;SDS011;15376;48.540;9.268;2022-09-30T12:37:17;3.03;;;2.40;;
2320;SDS011;15376;48.540;9.268;2022-09-30T12:48:35;3.03;;;2.73;;
2320;SDS011;15376;48.540;9.268;2022-09-30T12:51:04;2.53;;;2.33;;
2320;SDS011;15376;48.540;9.268;2022-09-30T12:53:31;3.47;;;3.03;;
2320;SDS011;15376;48.540;9.268;2022-09-30T12:56:06;3.27;;;2.80;;
2320;SDS011;15376;48.540;9.268;2022-09-30T12:58:43;2.70;;;2.50;;
2320;SDS011;15376;48.540;9.268;2022-09-30T13:01:13;3.10;;;2.57;;
2320;SDS011;15376;48.540;9.268;2022-09-30T13:06:13;2.73;;;2.50;;
2320;SDS011;15376;48.540;9.268;2022-09-30T13:08:41;2.40;;;2.00;;
2320;SDS011;15376;48.540;9.268;2022-09-30T13:11:20;3.20;;;2.90;;
2320;SDS011;15376;48.540;9.268;2022-09-30T13:14:16;4.03;;;2.53;;
2320;SDS011;15376;48.540;9.268;2022-09-30T13:19:41;2.60;;;2.40;;
2320;SDS011;15376;48.540;9.268;2022-09-30T13:32:40;4.70;;;2.63;;
2320;SDS011;15376;48.540;9.268;2022-09-30T13:43:42;2.63;;;2.40;;
2320;SDS011;15376;48.540;9.268;2022-09-30T13:46:12;2.57;;;2.20;;
2320;SDS011;15376;48.540;9.268;2022-09-30T13:48:42;3.30;;;2.40;;
2320;SDS011;15376;48.540;9.268;2022-09-30T13:51:13;2.43;;;2.23;;
2320;SDS011;15376;48.540;9.268;2022-09-30T13:53:49;2.97;;;2.10;;
2320;SDS011;15376;48.540;9.268;2022-09-30T13:56:20;3.00;;;2.10;;
2320;SDS011;15376;48.540;9.268;2022-09-30T14:07:01;3.10;;;1.90;;
2320;SDS011;15376;48.540;9.268;2022-09-30T14:12:33;2.30;;;2.10;;
2320;SDS011;15376;48.540;9.268;2022-09-30T14:18:23;2.27;;;1.73;;
2320;SDS011;15376;48.540;9.268;2022-09-30T14:24:08;4.40;;;2.17;;
2320;SDS011;15376;48.540;9.268;2022-09-30T14:26:52;2.43;;;2.03;;
2320;SDS011;15376;48.540;9.268;2022-09-30T14:30:02;3.00;;;2.10;;
2320;SDS011;15376;48.540;9.268;2022-09-30T14:32:16;2.10;;;1.70;;
2320;SDS011;15376;48.540;9.268;2022-09-30T14:34:44;3.10;;;1.90;;
2320;SDS011;15376;48.540;9.268;2022-09-30T14:37:17;2.80;;;2.17;;
2320;SDS011;15376;48.540;9.268;2022-09-30T14:39:51;3.17;;;2.13;;
2320;SDS011;15376;48.540;9.268;2022-09-30T14:42:22;2.13;;;1.97;;
2320;SDS011;15376;48.540;9.268;2022-09-30T14:44:53;4.13;;;2.30;;
2320;SDS011;15376;48.540;9.268;2022-09-30T14:47:20;2.23;;;2.03;;
2320;SDS011;15376;48.540;9.268;2022-09-30T14:49:46;20.97;;;14.63;;
2320;SDS011;15376;48.540;9.268;2022-09-30T14:52:33;4.77;;;2.47;;
2320;SDS011;15376;48.540;9.268;2022-09-30T14:55:00;6.73;;;2.97;;
2320;SDS011;15376;48.540;9.268;2022-09-30T14:57:26;4.23;;;3.13;;
2320;SDS011;15376;48.540;9.268;2022-09-30T14:59:52;4.27;;;2.60;;
2320;SDS011;15376;48.540;9.268;2022-09-30T15:02:51;2.60;;;2.40;;
2320;SDS011;15376;48.540;9.268;2022-09-30T15:05:17;3.07;;;2.57;;
2320;SDS011;15376;48.540;9.268;2022-09-30T15:07:42;2.20;;;1.73;;
2320;SDS011;15376;48.540;9.268;2022-09-30T15:10:15;3.87;;;2.40;;
2320;SDS011;15376;48.540;9.268;2022-09-30T15:12:42;3.83;;;2.20;;
2320;SDS011;15376;48.540;9.268;2022-09-30T15:15:22;2.20;;;2.00;;
2320;SDS011;15376;48.540;9.268;2022-09-30T15:17:59;2.90;;;2.10;;
2320;SDS011;15376;48.540;9.268;2022-09-30T15:20:30;2.43;;;2.00;;
2320;SDS011;15376;48.540;9.268;2022-09-30T15:22:59;8.67;;;3.03;;
2320;SDS011;15376;48.540;9.268;2022-09-30T15:25:27;2.23;;;2.03;;
2320;SDS011;15376;48.540;9.268;2022-09-30T15:27:54;5.80;;;2.17;;
2320;SDS011;15376;48.540;9.268;2022-09-30T15:30:24;2.00;;;1.80;;
2320;SDS011;15376;48.540;9.268;2022-09-30T15:32:57;2.40;;;2.10;;
2320;SDS011;15376;48.540;9.268;2022-09-30T15:35:24;2.23;;;2.03;;
2320;SDS011;15376;48.540;9.268;2022-09-30T15:37:50;2.00;;;1.73;;
2320;SDS011;15376;48.540;9.268;2022-09-30T15:40:22;2.20;;;2.00;;
2320;SDS011;15376;48.540;9.268;2022-09-30T15:43:07;2.37;;;1.97;;
2320;SDS011;15376;48.540;9.268;2022-09-30T15:50:50;3.83;;;3.53;;
2320;SDS011;15376;48.540;9.268;2022-09-30T15:53:21;3.60;;;2.50;;
2320;SDS011;15376;48.540;9.268;2022-09-30T15:55:50;2.00;;;1.80;;
2320;SDS011;15376;48.540;9.268;2022-09-30T15:58:36;5.00;;;4.70;;
2320;SDS011;15376;48.540;9.268;2022-09-30T16:01:08;2.93;;;2.30;;
2320;SDS011;15376;48.540;9.268;2022-09-30T16:06:14;3.73;;;2.33;;
2320;SDS011;15376;48.540;9.268;2022-09-30T16:08:45;2.77;;;2.10;;
2320;SDS011;15376;48.540;9.268;2022-09-30T16:11:19;2.07;;;1.87;;
2320;SDS011;15376;48.540;9.268;2022-09-30T16:13:49;2.27;;;2.00;;
2320;SDS011;15376;48.540;9.268;2022-09-30T16:16:22;3.17;;;2.10;;
2320;SDS011;15376;48.540;9.268;2022-09-30T16:18:50;2.60;;;1.90;;
2320;SDS011;15376;48.540;9.268;2022-09-30T16:26:52;2.60;;;2.13;;
2320;SDS011;15376;48.540;9.268;2022-09-30T16:29:22;3.00;;;2.27;;
2320;SDS011;15376;48.540;9.268;2022-09-30T16:31:50;2.57;;;2.37;;
2320;SDS011;15376;48.540;9.268;2022-09-30T16:34:21;2.73;;;2.30;;
2320;SDS011;15376;48.540;9.268;2022-09-30T16:36:48;3.33;;;2.07;;
2320;SDS011;15376;48.540;9.268;2022-09-30T16:39:15;2.63;;;2.00;;
2320;SDS011;15376;48.540;9.268;2022-09-30T16:41:41;2.50;;;2.30;;
2320;SDS011;15376;48.540;9.268;2022-09-30T16:44:07;2.33;;;1.93;;
2320;SDS011;15376;48.540;9.268;2022-09-30T16:46:33;3.00;;;1.80;;
2320;SDS011;15376;48.540;9.268;2022-09-30T16:48:58;2.50;;;2.30;;
2320;SDS011;15376;48.540;9.268;2022-09-30T16:51:24;2.30;;;2.10;;
2320;SDS011;15376;48.540;9.268;2022-09-30T16:53:51;2.97;;;2.40;;
2320;SDS011;15376;48.540;9.268;2022-09-30T16:56:17;3.80;;;2.03;;
2320;SDS011;15376;48.540;9.268;2022-09-30T16:58:44;2.67;;;2.07;;
2320;SDS011;15376;48.540;9.268;2022-09-30T17:01:17;8.27;;;3.30;;
2320;SDS011;15376;48.540;9.268;2022-09-30T17:03:44;14.70;;;10.30;;
2320;SDS011;15376;48.540;9.268;2022-09-30T17:06:10;14.23;;;9.97;;
2320;SDS011;15376;48.540;9.268;2022-09-30T17:08:36;10.13;;;7.83;;
2320;SDS011;15376;48.540;9.268;2022-09-30T17:11:01;9.00;;;6.60;;
2320;SDS011;15376;48.540;9.268;2022-09-30T17:13:27;6.20;;;3.80;;
2320;SDS011;15376;48.540;9.268;2022-09-30T17:15:53;4.80;;;3.77;;
2320;SDS011;15376;48.540;9.268;2022-09-30T17:18:19;3.53;;;3.23;;
2320;SDS011;15376;48.540;9.268;2022-09-30T17:20:45;7.80;;;5.30;;
2320;SDS011;15376;48.540;9.268;2022-09-30T17:23:16;8.63;;;3.20;;
2320;SDS011;15376;48.540;9.268;2022-09-30T17:25:42;4.67;;;3.20;;
2320;SDS011;15376;48.540;9.268;2022-09-30T17:28:10;3.83;;;3.53;;
2320;SDS011;15376;48.540;9.268;2022-09-30T17:30:37;5.20;;;4.07;;
2320;SDS011;15376;48.540;9.268;2022-09-30T17:33:05;3.73;;;3.30;;
2320;SDS011;15376;48.540;9.268;2022-09-30T17:35:31;3.97;;;3.70;;
2320;SDS011;15376;48.540;9.268;2022-09-30T17:37:57;6.97;;;3.60;;
2320;SDS011;15376;48.540;9.268;2022-09-30T17:40:24;3.70;;;3.40;;
2320;SDS011;15376;48.540;9.268;2022-09-30T17:43:08;4.43;;;4.03;;
2320;SDS011;15376;48.540;9.268;2022-09-30T17:45:40;4.20;;;3.60;;
2320;SDS011;15376;48.540;9.268;2022-09-30T17:48:08;6.90;;;3.40;;
2320;SDS011;15376;48.540;9.268;2022-09-30T17:50:35;4.00;;;3.60;;
2320;SDS011;15376;48.540;9.268;2022-09-30T17:53:02;4.00;;;3.60;;
2320;SDS011;15376;48.540;9.268;2022-09-30T17:55:29;6.53;;;4.43;;
2320;SDS011;15376;48.540;9.268;2022-09-30T17:57:55;6.50;;;4.10;;
2320;SDS011;15376;48.540;9.268;2022-09-30T18:00:21;7.63;;;6.20;;
2320;SDS011;15376;48.540;9.268;2022-09-30T18:02:47;10.50;;;7.53;;
2320;SDS011;15376;48.540;9.268;2022-09-30T18:05:12;6.53;;;5.43;;
2320;SDS011;15376;48.540;9.268;2022-09-30T18:07:39;10.07;;;7.20;;
2320;SDS011;15376;48.540;9.268;2022-09-30T18:10:05;11.90;;;8.97;;
2320;SDS011;15376;48.540;9.268;2022-09-30T18:12:32;6.80;;;6.10;;
2320;SDS011;15376;48.540;9.268;2022-09-30T18:14:58;10.80;;;8.40;;
2320;SDS011;15376;48.540;9.268;2022-09-30T18:17:23;9.50;;;6.80;;
2320;SDS011;15376;48.540;9.268;2022-09-30T18:19:49;5.90;;;5.30;;
2320;SDS011;15376;48.540;9.268;2022-09-30T18:22:14;6.70;;;5.50;;
2320;SDS011;15376;48.540;9.268;2022-09-30T18:24:40;6.53;;;5.00;;
2320;SDS011;15376;48.540;9.268;2022-09-30T18:27:37;5.73;;;5.23;;
2320;SDS011;15376;48.540;9.268;2022-09-30T18:30:03;10.73;;;7.53;;
2320;SDS011;15376;48.540;9.268;2022-09-30T18:32:29;7.60;;;6.30;;
2320;SDS011;15376;48.540;9.268;2022-09-30T18:34:55;6.87;;;6.10;;
2320;SDS011;15376;48.540;9.268;2022-09-30T18:37:24;7.87;;;6.60;;
2320;SDS011;15376;48.540;9.268;2022-09-30T18:39:52;8.80;;;7.90;;
2320;SDS011;15376;48.540;9.268;2022-09-30T18:42:18;8.80;;;7.23;;
2320;SDS011;15376;48.540;9.268;2022-09-30T18:44:44;8.53;;;7.73;;
2320;SDS011;15376;48.540;9.268;2022-09-30T18:47:11;9.43;;;8.30;;